Time;durP1;ratioP1;P1;durP2;ratioP2;P2;SDS_P1;SDS_P2;PMS_P1;PMS_P2;Temp;Humidity;BMP_temperature;BMP_pressure;BME280_temperature;BME280_humidity;BME280_pressure;Samples;Min_cycle;Max_cycle;Signal;HPM_P1;HPM_P2
2020/12/28 00:01:42;;;;;;;26.90;16.03;;;;;;;-0.72;75.83;98677.98;120615;1150;104387;-80
2020/12/28 00:04:09;;;;;;;24.33;16.73;;;;;;;-0.73;76.14;98680.54;120600;1148;104363;-80
2020/12/28 00:06:37;;;;;;;26.93;16.70;;;;;;;-0.73;76.03;98671.14;120608;1150;104518;-79
2020/12/28 00:09:08;;;;;;;28.10;17.03;;;;;;;-0.72;76.08;98677.98;120614;1148;104405;-80
2020/12/28 00:11:35;;;;;;;24.47;16.57;;;;;;;-0.72;76.61;98661.75;120610;1149;104457;-80
2020/12/28 00:14:03;;;;;;;26.70;16.70;;;;;;;-0.70;76.30;98655.77;120601;1148;104413;-79
2020/12/28 00:16:32;;;;;;;25.33;15.53;;;;;;;-0.70;76.75;98657.48;120587;1148;104520;-79
2020/12/28 00:19:00;;;;;;;26.03;16.07;;;;;;;-0.72;76.74;98647.27;120643;1148;103764;-79
2020/12/28 00:21:27;;;;;;;28.83;16.60;;;;;;;-0.69;76.90;98641.26;120556;1148;104409;-80
2020/12/28 00:23:55;;;;;;;24.63;15.47;;;;;;;-0.68;76.56;98648.92;120567;1148;104413;-79
2020/12/28 00:26:24;;;;;;;24.90;15.53;;;;;;;-0.69;76.44;98649.78;120619;1148;104496;-80
2020/12/28 00:28:52;;;;;;;25.83;15.43;;;;;;;-0.69;77.02;98623.34;120555;1148;104320;-79
2020/12/28 00:31:20;;;;;;;25.27;15.57;;;;;;;-0.69;76.96;98646.38;120599;1148;104445;-79
2020/12/28 00:33:47;;;;;;;24.70;15.37;;;;;;;-0.68;76.94;98643.80;120578;1148;104452;-79
2020/12/28 00:36:17;;;;;;;27.53;15.97;;;;;;;-0.68;76.94;98623.31;120535;1151;104340;-80
2020/12/28 00:38:45;;;;;;;28.63;15.70;;;;;;;-0.67;76.81;98635.25;120635;1148;104307;-79
2020/12/28 00:41:12;;;;;;;23.47;14.50;;;;;;;-0.67;77.13;98619.04;120592;1148;104295;-79
2020/12/28 00:43:42;;;;;;;25.10;16.00;;;;;;;-0.67;77.63;98619.04;120598;1148;104317;-79
2020/12/28 00:46:11;;;;;;;23.80;14.63;;;;;;;-0.64;77.37;98622.41;120648;1148;104411;-80
2020/12/28 00:48:38;;;;;;;27.70;15.10;;;;;;;-0.59;77.54;98631.73;120583;1148;104434;-80
2020/12/28 00:51:06;;;;;;;27.70;15.73;;;;;;;-0.59;77.42;98609.53;120599;1148;104356;-80
2020/12/28 00:53:33;;;;;;;24.00;14.73;;;;;;;-0.59;77.54;98621.48;120597;1148;104474;-80
2020/12/28 00:56:01;;;;;;;24.90;15.10;;;;;;;-0.61;77.34;98609.55;120593;1150;104352;-79
2020/12/28 00:58:29;;;;;;;24.93;15.30;;;;;;;-0.60;77.04;98615.52;120581;1148;104547;-80
2020/12/28 01:01:04;;;;;;;22.73;14.23;;;;;;;-0.59;77.17;98611.24;120546;1150;104447;-79
2020/12/28 01:03:32;;;;;;;24.63;15.17;;;;;;;-0.59;77.70;98606.13;120618;1148;104449;-80
2020/12/28 01:06:29;;;;;;;22.58;14.80;;;;;;;-0.57;77.40;98596.70;120568;1150;104358;-79
2020/12/28 01:09:16;;;;;;;;;;;;;;;-0.55;77.64;98597.52;120627;1148;104313;-79
2020/12/28 01:11:44;;;;;;;21.17;13.47;;;;;;;-0.55;77.63;98590.69;120716;1148;104362;-80
2020/12/28 01:14:13;;;;;;;19.13;13.20;;;;;;;-0.55;77.73;98588.12;120596;1148;104337;-80
2020/12/28 01:16:45;;;;;;;24.97;13.60;;;;;;;-0.53;77.49;98570.21;120611;1148;104404;-80
2020/12/28 01:19:12;;;;;;;22.27;14.13;;;;;;;-0.51;77.89;98574.44;120593;1148;104486;-79
2020/12/28 01:21:40;;;;;;;23.20;14.43;;;;;;;-0.49;77.83;98572.70;120589;1148;103552;-80
2020/12/28 01:24:08;;;;;;;21.45;13.65;;;;;;;-0.47;77.73;98560.71;120596;1148;104314;-80
2020/12/28 01:26:35;;;;;;;23.77;14.17;;;;;;;-0.43;77.73;98574.31;120581;1148;104961;-80
2020/12/28 01:29:04;;;;;;;21.40;13.93;;;;;;;-0.42;77.81;98558.08;120585;1148;103178;-79
2020/12/28 01:31:34;;;;;;;26.03;14.27;;;;;;;-0.41;77.97;98545.24;120608;1150;104320;-80
2020/12/28 01:34:05;;;;;;;25.33;13.67;;;;;;;-0.38;77.74;98544.34;120659;1148;104372;-81
2020/12/28 01:36:40;;;;;;;22.65;14.65;;;;;;;-0.36;77.99;98534.92;120601;1148;104379;-79
2020/12/28 01:39:17;;;;;;;22.53;13.13;;;;;;;-0.32;77.94;98542.55;120513;1148;104406;-81
2020/12/28 01:41:46;;;;;;;21.13;13.67;;;;;;;-0.28;77.83;98520.29;120646;1148;104425;-80
2020/12/28 01:44:13;;;;;;;21.93;13.70;;;;;;;-0.24;77.74;98516.80;120587;1148;104295;-80
2020/12/28 01:46:42;;;;;;;21.30;14.43;;;;;;;-0.22;78.09;98504.81;120481;1148;104373;-79
2020/12/28 01:49:10;;;;;;;21.30;14.30;;;;;;;-0.18;78.03;98501.34;120588;1148;104402;-79
2020/12/28 01:51:38;;;;;;;22.60;14.73;;;;;;;-0.16;78.14;98484.23;120547;1150;104555;-80
2020/12/28 01:54:05;;;;;;;24.27;14.77;;;;;;;-0.12;77.96;98479.89;120586;1148;104340;-80
2020/12/28 01:56:47;;;;;;;21.20;14.30;;;;;;;-0.10;77.73;98468.73;120597;1150;104331;-79
2020/12/28 01:59:17;;;;;;;24.87;15.03;;;;;;;-0.08;77.92;98474.67;120545;1148;103183;-79
2020/12/28 02:01:51;;;;;;;22.60;14.90;;;;;;;-0.05;77.64;98473.77;120615;1148;104341;-80
2020/12/28 02:04:19;;;;;;;22.23;14.17;;;;;;;-0.03;77.73;98469.46;120572;1148;104326;-80
2020/12/28 02:06:58;;;;;;;23.47;14.37;;;;;;;-0.04;77.95;98488.27;120585;1148;105628;-79
2020/12/28 02:09:27;;;;;;;23.50;14.97;;;;;;;-0.03;78.09;98470.30;120572;1148;104381;-80
2020/12/28 02:11:57;;;;;;;22.53;14.20;;;;;;;0.01;77.93;98465.15;120592;1148;104371;-80
2020/12/28 02:14:27;;;;;;;22.65;14.30;;;;;;;0.03;78.06;98483.91;120585;1148;104381;-80
2020/12/28 02:16:59;;;;;;;23.40;14.67;;;;;;;0.06;77.87;98484.69;120581;1148;104554;-80
2020/12/28 02:19:30;;;;;;;22.03;13.40;;;;;;;0.11;77.98;98476.91;120586;1151;104867;-79
2020/12/28 02:22:00;;;;;;;24.00;14.03;;;;;;;0.14;77.95;98461.46;120558;1148;104337;-80
2020/12/28 02:24:38;;;;;;;23.33;14.30;;;;;;;0.18;77.84;98461.40;120564;1150;103078;-80
2020/12/28 02:27:05;;;;;;;22.50;13.87;;;;;;;0.20;77.61;98477.59;120588;1150;104421;-79
2020/12/28 02:29:33;;;;;;;20.80;13.47;;;;;;;0.25;77.73;98469.80;120613;1148;104458;-80
2020/12/28 02:32:01;;;;;;;22.67;14.63;;;;;;;0.28;77.75;98467.18;120591;1148;104433;-79
2020/12/28 02:34:28;;;;;;;21.57;14.13;;;;;;;0.32;77.56;98461.11;120590;1148;103124;-80
2020/12/28 02:37:01;;;;;;;20.25;13.95;;;;;;;0.34;77.84;98485.00;120607;1148;104396;-80
2020/12/28 02:39:49;;;;;;;23.23;14.40;;;;;;;0.38;78.05;98481.53;120609;1148;105131;-80
2020/12/28 02:42:17;;;;;;;20.73;14.30;;;;;;;0.40;77.69;98464.39;120540;1148;104417;-79
2020/12/28 02:45:03;;;;;;;20.90;14.17;;;;;;;0.43;77.69;98455.78;120592;1148;104381;-80
2020/12/28 02:47:49;;;;;;;20.52;14.25;;;;;;;0.43;77.84;98451.50;120574;1148;104414;-80
2020/12/28 02:50:35;;;;;;;21.83;14.07;;;;;;;0.47;77.96;98473.64;120597;1148;104313;-80
2020/12/28 02:53:21;;;;;;;22.83;14.77;;;;;;;0.50;77.87;98460.74;120584;1148;104421;-80
2020/12/28 02:56:07;;;;;;;22.50;14.75;;;;;;;0.52;77.70;98428.20;120555;1148;104449;-79
2020/12/28 02:58:53;;;;;;;23.37;14.47;;;;;;;0.56;77.89;98452.10;120596;1148;104311;-80
2020/12/28 03:01:39;;;;;;;21.13;13.97;;;;;;;0.57;77.67;98452.06;120559;1148;104295;-79
2020/12/28 03:04:25;;;;;;;24.20;15.00;;;;;;;0.60;77.59;98431.48;120613;1148;104940;-79
2020/12/28 03:07:12;;;;;;;20.25;14.38;;;;;;;0.60;77.86;98426.34;120653;1150;104364;-80
2020/12/28 03:09:59;;;;;;;19.80;14.58;;;;;;;0.62;77.83;98421.18;120614;1148;104387;-80
2020/12/28 03:12:52;;;;;;;22.07;13.87;;;;;;;0.63;77.92;98435.70;120525;1150;104338;-80
2020/12/28 03:15:38;;;;;;;19.90;13.23;;;;;;;0.64;77.81;98416.02;120639;1148;104372;-80
2020/12/28 03:18:24;;;;;;;19.90;14.00;;;;;;;0.64;77.74;98426.27;120672;1148;104364;-80
2020/12/28 03:21:10;;;;;;;20.27;14.30;;;;;;;0.63;77.81;98409.20;120638;1148;104324;-80
2020/12/28 03:23:56;;;;;;;19.53;13.50;;;;;;;0.64;78.23;98432.25;120581;1148;104492;-79
2020/12/28 03:26:42;;;;;;;19.83;13.97;;;;;;;0.67;78.06;98405.68;120622;1148;104245;-79
2020/12/28 03:29:32;;;;;;;19.27;13.13;;;;;;;0.70;78.01;98415.87;120570;1148;104958;-79
2020/12/28 03:32:29;;;;;;;;;;;;;;;0.71;78.08;98391.90;120493;1151;104530;-80
2020/12/28 03:35:30;;;;;;;19.77;13.37;;;;;;;0.70;77.95;98390.22;120512;1148;104425;-80
2020/12/28 03:38:16;;;;;;;19.53;13.57;;;;;;;0.70;78.11;98385.08;120562;1148;104869;-79
2020/12/28 03:41:02;;;;;;;20.77;13.80;;;;;;;0.70;78.07;98370.53;120593;1148;104353;-79
2020/12/28 03:43:48;;;;;;;19.07;13.53;;;;;;;0.72;78.20;98362.80;120572;1150;104417;-79
2020/12/28 03:46:35;;;;;;;19.73;13.87;;;;;;;0.71;78.40;98366.24;120581;1149;104367;-80
2020/12/28 03:49:21;;;;;;;19.03;13.77;;;;;;;0.70;78.13;98362.83;120587;1150;104486;-79
2020/12/28 03:52:07;;;;;;;21.00;13.70;;;;;;;0.70;78.47;98349.16;120584;1148;104426;-79
2020/12/28 03:54:53;;;;;;;20.27;13.93;;;;;;;0.70;78.71;98334.61;120578;1148;104421;-80
2020/12/28 03:57:39;;;;;;;18.10;13.00;;;;;;;0.72;78.51;98338.02;120596;1151;104393;-79
2020/12/28 04:00:25;;;;;;;19.37;13.40;;;;;;;0.73;78.56;98338.86;120564;1150;104448;-79
2020/12/28 04:03:13;;;;;;;19.17;13.63;;;;;;;0.74;78.75;98343.11;120563;1148;104405;-79
2020/12/28 04:06:01;;;;;;;19.73;13.23;;;;;;;0.76;78.70;98333.65;120460;1148;104335;-80
2020/12/28 04:08:54;;;;;;;18.13;12.53;;;;;;;0.76;78.79;98319.09;120597;1148;104305;-80
2020/12/28 04:11:57;;;;;;;22.53;13.50;;;;;;;0.77;78.64;98313.08;120548;1148;104413;-79
2020/12/28 04:14:29;;;;;;;17.50;12.80;;;;;;;0.77;78.86;98322.50;120558;1148;104293;-79
2020/12/28 04:16:57;;;;;;;18.05;12.70;;;;;;;0.77;78.91;98294.28;120571;1150;104447;-79
2020/12/28 04:19:24;;;;;;;19.60;12.63;;;;;;;0.80;79.11;98283.94;120532;1150;104322;-79
2020/12/28 04:21:51;;;;;;;19.00;12.58;;;;;;;0.82;79.21;98277.87;120598;1149;104318;-78
2020/12/28 04:24:19;;;;;;;20.40;12.53;;;;;;;0.81;79.07;98295.88;120586;1148;104307;-79
2020/12/28 04:26:46;;;;;;;17.93;12.20;;;;;;;0.82;79.29;98307.83;120567;1148;104310;-79
2020/12/28 04:29:14;;;;;;;20.07;13.47;;;;;;;0.83;79.23;98276.16;120579;1148;104359;-80
2020/12/28 04:31:42;;;;;;;18.67;13.00;;;;;;;0.85;79.49;98288.06;120581;1150;104620;-79
2020/12/28 04:34:10;;;;;;;18.37;13.13;;;;;;;0.88;79.67;98299.97;120581;1148;104305;-79
2020/12/28 04:36:38;;;;;;;18.73;12.90;;;;;;;0.92;79.67;98287.94;120598;1148;104471;-80
2020/12/28 04:39:06;;;;;;;18.27;13.23;;;;;;;0.92;79.87;98275.10;120578;1150;104417;-80
2020/12/28 04:41:34;;;;;;;17.73;13.07;;;;;;;0.96;79.79;98266.44;120591;1148;104311;-80
2020/12/28 04:44:02;;;;;;;19.33;13.10;;;;;;;0.98;79.75;98264.67;120577;1148;104397;-80
2020/12/28 04:46:31;;;;;;;18.23;12.47;;;;;;;0.98;79.82;98268.08;120594;1148;104450;-80
2020/12/28 04:49:00;;;;;;;19.73;13.80;;;;;;;0.99;79.92;98285.17;120705;1148;104343;-79
2020/12/28 04:51:27;;;;;;;18.03;12.37;;;;;;;1.01;80.08;98262.86;120590;1148;102953;-80
2020/12/28 04:53:57;;;;;;;17.20;12.17;;;;;;;1.03;79.74;98280.80;120535;1148;104438;-80
2020/12/28 04:56:25;;;;;;;17.83;13.20;;;;;;;1.05;79.94;98261.89;120555;1148;104345;-79
2020/12/28 04:58:54;;;;;;;17.37;12.70;;;;;;;1.07;79.99;98269.55;120595;1148;104337;-79
2020/12/28 05:01:21;;;;;;;17.77;11.97;;;;;;;1.08;80.04;98264.41;120597;1151;104339;-79
2020/12/28 05:03:49;;;;;;;19.93;13.00;;;;;;;1.10;79.90;98272.07;120572;1148;104452;-79
2020/12/28 05:06:17;;;;;;;18.10;12.30;;;;;;;1.11;79.88;98258.35;120625;1148;104321;-80
2020/12/28 05:08:45;;;;;;;19.17;12.57;;;;;;;1.11;80.08;98263.48;120528;1148;104420;-79
2020/12/28 05:11:14;;;;;;;19.33;13.27;;;;;;;1.12;80.24;98275.44;120559;1148;104460;-79
2020/12/28 05:13:51;;;;;;;18.90;13.23;;;;;;;1.13;80.17;98288.23;120558;1148;104389;-79
2020/12/28 05:16:19;;;;;;;21.77;12.70;;;;;;;1.18;80.24;98260.70;120538;1150;104543;-79
2020/12/28 05:18:52;;;;;;;17.37;13.00;;;;;;;1.24;80.31;98259.69;120571;1148;104420;-79
2020/12/28 05:21:27;;;;;;;19.30;13.77;;;;;;;1.29;79.93;98269.87;120500;1148;104450;-79
2020/12/28 05:23:55;;;;;;;20.03;13.00;;;;;;;1.30;80.34;98253.58;120599;1150;104546;-79
2020/12/28 05:26:23;;;;;;;19.47;13.33;;;;;;;1.33;80.24;98240.64;120558;1148;104891;-79
2020/12/28 05:28:55;;;;;;;18.67;13.20;;;;;;;1.34;80.59;98252.60;120622;1148;104333;-79
2020/12/28 05:31:23;;;;;;;19.43;13.73;;;;;;;1.38;80.38;98251.62;120605;1148;101954;-80
2020/12/28 05:33:53;;;;;;;19.23;12.70;;;;;;;1.40;80.37;98244.72;120509;1148;104391;-77
2020/12/28 05:36:21;;;;;;;18.33;13.27;;;;;;;1.44;80.49;98251.48;120523;1148;104355;-79
2020/12/28 05:38:48;;;;;;;22.63;14.13;;;;;;;1.46;80.29;98267.70;120531;1148;104342;-80
2020/12/28 05:41:26;;;;;;;21.13;13.73;;;;;;;1.47;80.49;98251.39;120542;1148;104343;-80
2020/12/28 05:43:54;;;;;;;18.63;13.00;;;;;;;1.48;80.22;98264.20;120605;1148;103380;-79
2020/12/28 05:46:24;;;;;;;21.00;13.70;;;;;;;1.49;80.23;98247.05;120506;1148;105519;-80
2020/12/28 05:48:54;;;;;;;20.97;13.00;;;;;;;1.50;80.45;98251.30;120583;1148;104277;-79
2020/12/28 05:51:22;;;;;;;19.33;13.17;;;;;;;1.50;80.22;98252.14;120574;1148;104310;-80
2020/12/28 05:53:51;;;;;;;18.40;12.95;;;;;;;1.53;80.21;98258.08;120612;1150;104392;-80
2020/12/28 05:56:19;;;;;;;19.20;13.77;;;;;;;1.53;80.61;98268.36;120590;1148;104348;-79
2020/12/28 05:58:48;;;;;;;19.37;13.47;;;;;;;1.55;80.66;98280.27;120537;1148;104458;-80
2020/12/28 06:01:20;;;;;;;20.30;13.45;;;;;;;1.54;80.33;98270.04;120529;1148;104392;-79
2020/12/28 06:03:48;;;;;;;18.65;12.40;;;;;;;1.53;80.33;98258.08;120596;1150;104509;-80
2020/12/28 06:06:16;;;;;;;17.17;12.87;;;;;;;1.52;80.52;98285.50;120582;1148;101827;-80
2020/12/28 06:08:44;;;;;;;16.57;12.50;;;;;;;1.51;80.40;98258.97;120583;1150;104346;-79
2020/12/28 06:11:12;;;;;;;17.63;12.70;;;;;;;1.51;80.57;98251.27;120554;1148;104378;-79
2020/12/28 06:13:44;;;;;;;20.73;13.27;;;;;;;1.51;80.68;98266.67;120569;1148;104370;-79
2020/12/28 06:16:22;;;;;;;18.77;13.03;;;;;;;1.54;80.63;98280.31;120553;1148;104330;-80
2020/12/28 06:18:56;;;;;;;19.93;12.90;;;;;;;1.54;80.49;98242.63;120637;1150;104400;-79
2020/12/28 06:21:37;;;;;;;19.37;13.03;;;;;;;1.54;81.10;98247.76;120592;1150;104479;-80
2020/12/28 06:24:04;;;;;;;19.47;13.47;;;;;;;1.56;80.82;98243.41;120570;1148;104433;-80
2020/12/28 06:26:32;;;;;;;19.70;13.40;;;;;;;1.59;81.10;98253.60;120567;1148;104409;-79
2020/12/28 06:29:07;;;;;;;21.10;13.75;;;;;;;1.60;80.69;98280.98;120593;1150;104414;-80
2020/12/28 06:31:35;;;;;;;20.30;13.97;;;;;;;1.61;80.91;98280.09;120616;1148;104342;-81
2020/12/28 06:34:02;;;;;;;20.33;14.10;;;;;;;1.61;80.94;98269.81;120590;1148;104925;-80
2020/12/28 06:36:29;;;;;;;20.57;14.07;;;;;;;1.61;80.99;98254.40;120537;1148;104605;-80
2020/12/28 06:39:00;;;;;;;21.00;14.43;;;;;;;1.61;81.19;98246.69;120560;1148;104325;-80
2020/12/28 06:41:29;;;;;;;20.73;14.40;;;;;;;1.62;81.50;98252.70;120586;1148;104472;-79
2020/12/28 06:44:02;;;;;;;20.33;14.20;;;;;;;1.63;81.60;98242.38;120567;1150;103069;-80
2020/12/28 06:46:30;;;;;;;19.70;13.87;;;;;;;1.65;81.08;98245.75;120639;1148;104310;-80
2020/12/28 06:48:58;;;;;;;19.70;14.30;;;;;;;1.69;81.30;98242.20;120561;1148;104439;-81
2020/12/28 06:51:27;;;;;;;20.03;13.87;;;;;;;1.71;81.57;98239.58;120633;1150;104239;-80
2020/12/28 06:53:56;;;;;;;19.17;13.70;;;;;;;1.73;81.13;98258.36;120632;1149;104188;-80
2020/12/28 06:56:27;;;;;;;21.83;13.67;;;;;;;1.73;81.30;98241.22;120631;1148;105056;-80
2020/12/28 06:58:59;;;;;;;18.73;13.13;;;;;;;1.76;81.09;98261.69;120654;1148;103326;-81
2020/12/28 07:01:28;;;;;;;20.77;13.83;;;;;;;1.78;81.23;98256.49;120672;1148;104356;-81
2020/12/28 07:03:57;;;;;;;18.55;13.50;;;;;;;1.77;80.99;98265.94;120649;1148;105008;-80
2020/12/28 07:06:24;;;;;;;18.80;13.27;;;;;;;1.78;81.34;98274.48;120631;1148;104282;-80
2020/12/28 07:09:06;;;;;;;18.87;14.03;;;;;;;1.80;81.10;98241.90;120670;1148;104409;-81
2020/12/28 07:11:34;;;;;;;18.73;13.63;;;;;;;1.81;81.19;98249.56;120655;1148;104315;-80
2020/12/28 07:14:07;;;;;;;19.37;13.43;;;;;;;1.86;80.97;98274.28;120612;1148;104399;-80
2020/12/28 07:16:35;;;;;;;23.17;13.77;;;;;;;1.87;81.07;98250.27;120618;1148;104448;-80
2020/12/28 07:19:04;;;;;;;21.17;13.77;;;;;;;1.89;80.99;98248.48;120605;1148;104866;-81
2020/12/28 07:21:32;;;;;;;20.37;14.83;;;;;;;1.88;80.85;98259.66;120654;1148;104404;-80
2020/12/28 07:23:59;;;;;;;19.70;13.93;;;;;;;1.86;81.09;98248.58;120609;1149;102547;-80
2020/12/28 07:26:27;;;;;;;20.33;15.27;;;;;;;1.85;80.71;98242.60;120514;1148;104419;-81
2020/12/28 07:28:54;;;;;;;20.33;13.90;;;;;;;1.82;81.18;98247.83;120679;1148;104396;-81
2020/12/28 07:31:23;;;;;;;22.87;14.27;;;;;;;1.79;81.37;98246.17;120672;1148;104402;-80
2020/12/28 07:33:51;;;;;;;22.53;15.30;;;;;;;1.77;81.51;98239.39;120661;1148;104336;-80
2020/12/28 07:36:25;;;;;;;22.87;14.63;;;;;;;1.76;81.32;98228.27;120638;1148;104435;-80
2020/12/28 07:38:54;;;;;;;22.80;15.00;;;;;;;1.77;81.16;98244.53;120652;1150;104420;-81
2020/12/28 07:41:23;;;;;;;19.60;14.17;;;;;;;1.79;81.15;98228.17;120701;1148;104405;-80
2020/12/28 07:43:53;;;;;;;21.33;15.20;;;;;;;1.84;81.29;98215.22;120704;1148;104471;-81
2020/12/28 07:46:35;;;;;;;21.37;15.50;;;;;;;1.94;80.96;98231.19;120766;1148;104343;-79
2020/12/28 07:49:21;;;;;;;23.27;15.33;;;;;;;2.04;80.75;98217.19;120602;1148;104773;-80
2020/12/28 07:52:08;;;;;;;20.57;15.13;;;;;;;2.13;80.43;98222.03;120620;1148;104342;-79
2020/12/28 07:54:56;;;;;;;23.77;15.73;;;;;;;2.31;79.98;98226.61;120562;1148;104319;-79
2020/12/28 07:57:43;;;;;;;23.53;14.93;;;;;;;2.43;79.61;98218.52;120570;1148;104354;-80
2020/12/28 08:00:15;;;;;;;22.83;15.07;;;;;;;2.42;79.35;98205.70;120605;1148;104352;-80
2020/12/28 08:03:32;;;;;;;23.70;15.27;;;;;;;2.43;79.47;98215.11;120589;1148;104491;-80
2020/12/28 08:06:05;;;;;;;22.57;14.80;;;;;;;2.45;78.93;98241.63;120361;1151;104361;-79
2020/12/28 08:08:32;;;;;;;22.70;15.00;;;;;;;2.41;79.32;98194.58;120414;1151;104255;-80
2020/12/28 08:11:02;;;;;;;19.50;14.73;;;;;;;2.34;79.70;98200.82;120406;1151;104508;-80
2020/12/28 08:13:32;;;;;;;24.80;16.00;;;;;;;2.26;79.49;98207.08;120490;1154;104475;-80
2020/12/28 08:16:11;;;;;;;23.43;15.23;;;;;;;2.16;80.11;98213.41;120439;1152;104439;-80
2020/12/28 08:18:53;;;;;;;23.13;15.10;;;;;;;2.10;80.58;98216.99;120416;1153;104563;-79
2020/12/28 08:21:23;;;;;;;20.63;14.97;;;;;;;2.08;80.61;98239.34;120422;1151;104495;-80
2020/12/28 08:23:53;;;;;;;21.37;15.60;;;;;;;2.06;80.29;98199.98;120486;1152;104327;-80
2020/12/28 08:26:25;;;;;;;23.47;15.87;;;;;;;2.08;81.03;98239.34;120416;1151;105652;-80
2020/12/28 08:28:56;;;;;;;23.17;15.10;;;;;;;2.10;80.71;98211.84;120442;1154;104324;-80
2020/12/28 08:31:29;;;;;;;20.23;15.30;;;;;;;2.13;80.59;98216.89;120332;1154;104473;-80
2020/12/28 08:34:05;;;;;;;20.63;15.60;;;;;;;2.21;80.58;98212.38;120462;1153;104417;-80
2020/12/28 08:36:36;;;;;;;20.67;14.80;;;;;;;2.30;79.91;98218.95;120444;1154;104334;-80
2020/12/28 08:39:21;;;;;;;21.17;15.10;;;;;;;2.34;80.13;98213.69;120524;1151;104636;-80
2020/12/28 08:41:56;;;;;;;22.93;14.47;;;;;;;2.36;80.51;98196.47;120457;1151;104834;-80
2020/12/28 08:44:26;;;;;;;21.63;15.93;;;;;;;2.38;80.61;98184.39;120666;1150;104417;-80
2020/12/28 08:47:03;;;;;;;18.67;14.37;;;;;;;2.40;80.12;98180.03;120680;1148;104503;-79
2020/12/28 08:49:33;;;;;;;19.27;13.90;;;;;;;2.46;79.92;98183.29;120688;1150;104347;-80
2020/12/28 08:52:11;;;;;;;19.70;14.37;;;;;;;2.49;79.84;98178.87;120651;1148;105425;-80
2020/12/28 08:54:39;;;;;;;19.57;14.30;;;;;;;2.56;79.79;98174.39;120589;1148;103804;-80
2020/12/28 08:57:28;;;;;;;24.47;15.57;;;;;;;2.62;79.59;98169.03;120667;1150;105146;-80
2020/12/28 08:59:59;;;;;;;23.03;15.07;;;;;;;2.68;79.83;98166.24;120714;1148;104309;-79
2020/12/28 09:02:27;;;;;;;21.40;14.03;;;;;;;2.72;79.63;98162.70;120724;1148;104336;-79
2020/12/28 09:04:57;;;;;;;19.43;13.40;;;;;;;2.75;79.34;98184.92;120726;1150;104368;-80
2020/12/28 09:07:24;;;;;;;19.13;14.37;;;;;;;2.83;79.41;98173.45;120560;1148;104461;-80
2020/12/28 09:09:52;;;;;;;19.07;14.00;;;;;;;2.97;79.36;98140.36;120520;1148;104415;-79
2020/12/28 09:12:20;;;;;;;20.10;14.27;;;;;;;3.17;78.96;98156.83;120518;1148;104282;-79
2020/12/28 09:14:47;;;;;;;18.80;13.13;;;;;;;3.29;78.87;98151.25;120575;1148;104600;-80
2020/12/28 09:17:18;;;;;;;18.10;13.60;;;;;;;3.38;78.00;98134.60;120631;1148;104422;-79
2020/12/28 09:19:45;;;;;;;19.20;13.10;;;;;;;3.47;78.07;98160.89;120571;1148;104424;-80
2020/12/28 09:22:12;;;;;;;17.80;13.03;;;;;;;3.53;77.45;98134.04;120565;1150;104538;-80
2020/12/28 09:24:40;;;;;;;18.63;13.07;;;;;;;3.48;77.04;98178.03;120568;1148;104394;-80
2020/12/28 09:27:08;;;;;;;17.83;12.80;;;;;;;3.49;77.75;98133.32;120584;1148;104364;-80
2020/12/28 09:29:35;;;;;;;20.23;13.77;;;;;;;3.51;77.53;98134.09;120595;1148;104506;-79
2020/12/28 09:32:03;;;;;;;19.53;13.27;;;;;;;3.55;76.98;98148.55;120653;1148;104381;-80
2020/12/28 09:34:30;;;;;;;18.75;13.75;;;;;;;3.54;76.74;98141.71;120583;1148;104446;-80
2020/12/28 09:37:02;;;;;;;19.20;13.40;;;;;;;3.52;77.53;98128.05;120584;1148;104869;-80
2020/12/28 09:39:30;;;;;;;19.47;14.03;;;;;;;3.54;77.57;98136.56;120642;1148;104285;-79
2020/12/28 09:41:58;;;;;;;21.57;14.07;;;;;;;3.67;77.63;98115.48;120693;1148;104340;-79
2020/12/28 09:44:25;;;;;;;19.77;13.47;;;;;;;4.00;77.13;98118.50;120583;1150;103049;-79
2020/12/28 09:46:54;;;;;;;20.00;13.37;;;;;;;4.34;75.89;98118.82;120596;1151;105294;-79
2020/12/28 09:49:23;;;;;;;20.33;12.73;;;;;;;4.65;74.71;98102.03;120711;1148;104328;-80
2020/12/28 09:51:55;;;;;;;17.17;12.43;;;;;;;4.85;74.41;98087.39;120600;1148;104342;-81
2020/12/28 09:54:23;;;;;;;17.27;12.30;;;;;;;5.01;73.81;98084.11;120601;1148;104870;-79
2020/12/28 09:57:05;;;;;;;18.47;12.57;;;;;;;5.23;73.00;98040.09;120602;1150;104414;-80
2020/12/28 09:59:38;;;;;;;17.37;11.80;;;;;;;5.37;71.65;98041.10;120621;1148;104457;-80
2020/12/28 10:02:06;;;;;;;16.40;12.03;;;;;;;5.65;72.30;98032.07;120653;1148;104296;-79
2020/12/28 10:04:34;;;;;;;14.77;11.43;;;;;;;5.78;70.89;98040.92;120581;1148;104366;-79
2020/12/28 10:07:02;;;;;;;16.90;12.77;;;;;;;5.83;70.28;98054.47;120586;1148;104750;-80
2020/12/28 10:09:29;;;;;;;16.07;11.67;;;;;;;5.83;69.79;98048.45;120600;1148;104391;-80
2020/12/28 10:11:58;;;;;;;15.43;11.63;;;;;;;5.91;70.42;98048.95;120587;1148;104541;-80
2020/12/28 10:14:25;;;;;;;14.10;10.87;;;;;;;6.05;69.94;98033.59;120603;1148;104413;-80
2020/12/28 10:16:54;;;;;;;13.50;10.75;;;;;;;6.13;69.42;98028.06;120606;1148;104364;-80
2020/12/28 10:19:22;;;;;;;14.67;10.77;;;;;;;6.30;69.31;98013.36;120653;1148;104391;-80
2020/12/28 10:21:50;;;;;;;14.27;10.47;;;;;;;6.38;68.66;98031.09;120564;1148;103114;-80
2020/12/28 10:24:17;;;;;;;13.57;10.70;;;;;;;6.41;68.42;98036.11;120532;1151;104387;-79
2020/12/28 10:26:45;;;;;;;15.03;10.73;;;;;;;6.47;68.89;98024.63;120591;1148;104375;-80
2020/12/28 10:29:12;;;;;;;16.73;10.60;;;;;;;6.53;68.71;98012.19;120562;1148;104435;-80
2020/12/28 10:31:40;;;;;;;14.20;10.90;;;;;;;6.48;67.98;98010.76;120607;1150;104361;-79
2020/12/28 10:34:08;;;;;;;11.87;9.77;;;;;;;6.46;68.39;98010.81;120585;1148;104784;-80
2020/12/28 10:36:36;;;;;;;12.00;9.40;;;;;;;6.43;68.14;98000.61;120575;1150;104492;-80
2020/12/28 10:39:07;;;;;;;13.67;10.37;;;;;;;6.48;68.45;97990.88;120594;1150;104326;-80
2020/12/28 10:41:34;;;;;;;12.20;10.05;;;;;;;6.42;68.59;97998.94;120586;1148;104401;-80
2020/12/28 10:44:02;;;;;;;14.13;9.70;;;;;;;6.25;68.65;97991.19;120572;1150;104454;-79
2020/12/28 10:46:36;;;;;;;12.00;9.63;;;;;;;6.07;68.95;97987.77;120586;1148;104933;-80
2020/12/28 10:49:05;;;;;;;12.87;10.27;;;;;;;5.89;70.34;97971.38;120548;1150;104444;-79
2020/12/28 10:51:32;;;;;;;13.83;9.87;;;;;;;5.66;70.69;97979.44;120685;1148;104367;-80
2020/12/28 10:53:59;;;;;;;22.00;10.93;;;;;;;5.51;70.60;97982.75;120609;1148;104391;-80
2020/12/28 10:56:31;;;;;;;16.50;9.67;;;;;;;5.42;71.06;97956.45;120571;1148;101961;-79
2020/12/28 10:58:59;;;;;;;15.27;10.07;;;;;;;5.33;71.85;97945.69;120645;1149;104354;-79
2020/12/28 11:01:28;;;;;;;15.23;9.83;;;;;;;5.25;72.30;97948.66;120567;1150;104442;-80
2020/12/28 11:03:57;;;;;;;13.97;9.53;;;;;;;5.21;72.77;97947.12;120673;1148;104348;-79
2020/12/28 11:06:24;;;;;;;13.17;9.20;;;;;;;5.15;72.67;97932.73;120557;1148;104366;-79
2020/12/28 11:08:52;;;;;;;13.07;9.43;;;;;;;5.08;73.17;97913.27;120541;1146;104404;-79
2020/12/28 11:11:23;;;;;;;18.17;9.73;;;;;;;5.01;73.53;97916.19;120575;1148;104917;-80
2020/12/28 11:13:52;;;;;;;12.50;8.90;;;;;;;4.95;73.60;97908.74;120557;1148;104342;-80
2020/12/28 11:16:26;;;;;;;12.77;9.23;;;;;;;4.90;74.01;97947.70;120653;1148;104462;-80
2020/12/28 11:18:55;;;;;;;13.80;8.83;;;;;;;4.90;73.54;97915.88;120605;1148;104504;-78
2020/12/28 11:21:23;;;;;;;14.33;8.97;;;;;;;4.89;74.36;97919.38;120616;1148;104427;-79
2020/12/28 11:23:59;;;;;;;13.17;9.63;;;;;;;4.88;73.95;97912.53;120588;1150;104431;-80
2020/12/28 11:26:29;;;;;;;13.47;8.73;;;;;;;4.87;74.55;97900.53;120557;1148;104654;-79
2020/12/28 11:28:57;;;;;;;13.05;9.05;;;;;;;4.85;74.74;97908.34;120607;1148;104321;-80
2020/12/28 11:31:25;;;;;;;13.90;9.13;;;;;;;4.81;74.25;97897.30;120687;1150;105505;-80
2020/12/28 11:33:54;;;;;;;12.63;9.40;;;;;;;4.78;74.84;97907.77;120622;1148;104323;-81